createdAt,value
2023-01-13T00:01:35.162Z,96832.06
2023-01-13T00:04:20.144Z,96819.41
2023-01-13T00:07:05.043Z,96810.63
2023-01-13T00:09:49.960Z,96810.31
2023-01-13T00:12:34.942Z,96823.75
2023-01-13T00:15:19.798Z,96828.69
2023-01-13T00:18:04.675Z,96810.94
2023-01-13T00:20:49.645Z,96803.84
2023-01-13T00:23:34.494Z,96806.59
2023-01-13T00:26:19.544Z,96809.72
2023-01-13T00:29:04.577Z,96804.25
2023-01-13T00:31:49.435Z,96796.84
2023-01-13T00:34:34.365Z,96794.19
2023-01-13T00:37:19.093Z,96794.38
2023-01-13T00:40:03.905Z,96778.72
2023-01-13T00:42:48.691Z,96777.25
2023-01-13T00:45:33.598Z,96785.13
2023-01-13T00:48:18.584Z,96761.38
2023-01-13T00:51:03.402Z,96772.75
2023-01-13T00:53:48.397Z,96763.72
2023-01-13T00:56:40.291Z,96762.69
2023-01-13T00:59:25.766Z,96758.94
2023-01-13T01:02:10.979Z,96765.94
2023-01-13T01:04:56.251Z,96771.50
2023-01-13T01:07:41.347Z,96765.41
2023-01-13T01:10:26.170Z,96760.16
2023-01-13T01:13:10.958Z,96756.44
2023-01-13T01:15:55.812Z,96760.34
2023-01-13T01:18:40.535Z,96767.44
2023-01-13T01:21:25.334Z,96765.66
2023-01-13T01:24:10.176Z,96760.66
2023-01-13T01:26:55.251Z,96770.31
2023-01-13T01:29:40.125Z,96768.03
2023-01-13T01:32:25.025Z,96761.88
2023-01-13T01:35:09.989Z,96758.88
2023-01-13T01:37:54.829Z,96780.66
2023-01-13T01:40:39.833Z,96774.44
2023-01-13T01:43:24.660Z,96754.94
2023-01-13T01:46:09.633Z,96761.97
2023-01-13T01:48:54.450Z,96764.97
2023-01-13T01:51:39.426Z,96776.41
2023-01-13T01:54:24.161Z,96776.56
2023-01-13T01:57:09.053Z,96774.25
2023-01-13T01:59:54.073Z,96754.56
2023-01-13T02:02:39.059Z,96756.16
2023-01-13T02:05:23.832Z,96755.91
2023-01-13T02:08:08.748Z,96747.22
2023-01-13T02:10:53.601Z,96748.19
2023-01-13T02:13:38.433Z,96735.56
2023-01-13T02:16:23.383Z,96733.41
2023-01-13T02:19:08.022Z,96718.84
2023-01-13T02:21:52.894Z,96730.06
2023-01-13T02:24:37.724Z,96728.44
2023-01-13T02:27:22.492Z,96722.78
2023-01-13T02:30:07.985Z,96721.03
2023-01-13T02:32:52.939Z,96713.94
2023-01-13T02:35:37.916Z,96704.16
2023-01-13T02:38:22.834Z,96700.50
2023-01-13T02:41:07.849Z,96706.44
2023-01-13T02:43:52.582Z,96703.97
2023-01-13T02:46:37.452Z,96699.50
2023-01-13T02:49:22.236Z,96702.22
2023-01-13T02:52:07.052Z,96696.03
2023-01-13T02:54:52.037Z,96694.81
2023-01-13T02:57:36.918Z,96684.03
2023-01-13T03:00:21.816Z,96686.31
2023-01-13T03:03:06.656Z,96701.22
2023-01-13T03:05:51.474Z,96699.69
2023-01-13T03:08:36.283Z,96692.13
2023-01-13T03:11:21.153Z,96690.97
2023-01-13T03:14:06.025Z,96686.47
2023-01-13T03:16:50.926Z,96685.94
2023-01-13T03:19:36.210Z,96693.00
2023-01-13T03:22:21.026Z,96698.84
2023-01-13T03:25:06.058Z,96708.00
2023-01-13T03:27:50.816Z,96698.19
2023-01-13T03:30:35.755Z,96689.31
2023-01-13T03:33:20.562Z,96694.53
2023-01-13T03:36:05.714Z,96701.53
2023-01-13T03:38:50.473Z,96697.19
2023-01-13T03:41:35.463Z,96703.88
2023-01-13T03:44:20.465Z,96702.16
2023-01-13T03:47:05.322Z,96702.78
2023-01-13T03:49:50.170Z,96707.84
2023-01-13T03:52:35.104Z,96704.16
2023-01-13T03:55:20.112Z,96724.69
2023-01-13T03:58:04.980Z,96711.03
2023-01-13T04:00:49.868Z,96715.19
2023-01-13T04:03:34.739Z,96723.06
2023-01-13T04:06:19.561Z,96724.38
2023-01-13T04:09:05.040Z,96724.88
2023-01-13T04:11:49.799Z,96734.56
2023-01-13T04:14:34.609Z,96737.41
2023-01-13T04:17:19.392Z,96735.47
2023-01-13T04:20:04.405Z,96731.25
2023-01-13T04:22:49.223Z,96738.59
2023-01-13T04:25:34.065Z,96747.75
2023-01-13T04:28:18.885Z,96744.22
2023-01-13T04:31:03.875Z,96761.84
2023-01-13T04:33:49.160Z,96743.16
2023-01-13T04:36:33.973Z,96745.06
2023-01-13T04:39:19.028Z,96741.53
2023-01-13T04:42:03.980Z,96747.31
2023-01-13T04:44:48.879Z,96742.03
2023-01-13T04:47:33.682Z,96757.69
2023-01-13T04:50:18.653Z,96747.19
2023-01-13T04:53:03.474Z,96753.41
2023-01-13T04:55:48.388Z,96756.56
2023-01-13T04:58:33.196Z,96759.22
2023-01-13T05:01:18.099Z,96759.28
2023-01-13T05:04:03.472Z,96760.66
2023-01-13T05:06:48.199Z,96759.34
2023-01-13T05:09:33.221Z,96759.13
2023-01-13T05:12:18.013Z,96761.41
2023-01-13T05:15:02.895Z,96761.81
2023-01-13T05:17:47.745Z,96757.63
2023-01-13T05:20:32.629Z,96758.25
2023-01-13T05:23:17.473Z,96757.22
2023-01-13T05:26:02.438Z,96764.34
2023-01-13T05:28:47.337Z,96767.41
2023-01-13T05:31:32.229Z,96766.00
2023-01-13T05:34:17.140Z,96766.59
2023-01-13T05:37:02.025Z,96754.94
2023-01-13T05:39:47.055Z,96761.88
2023-01-13T05:42:31.870Z,96746.06
2023-01-13T05:45:17.296Z,96752.94
2023-01-13T05:48:02.150Z,96761.47
2023-01-13T05:50:46.956Z,96754.13
2023-01-13T05:53:32.045Z,96749.66
2023-01-13T05:56:16.918Z,96762.63
2023-01-13T05:59:01.837Z,96753.19
2023-01-13T06:01:46.673Z,96752.09
2023-01-13T06:04:32.956Z,96758.66
2023-01-13T06:07:17.823Z,96756.09
2023-01-13T06:10:02.691Z,96758.03
2023-01-13T06:12:47.736Z,96751.91
2023-01-13T06:15:32.498Z,96747.53
2023-01-13T06:18:17.396Z,96746.72
2023-01-13T06:21:02.283Z,96746.28
2023-01-13T06:23:47.205Z,96738.91
2023-01-13T06:26:31.990Z,96751.91
2023-01-13T06:29:16.888Z,96748.19
2023-01-13T06:32:01.775Z,96744.16
2023-01-13T06:34:46.506Z,96745.28
2023-01-13T06:37:31.389Z,96754.72
2023-01-13T06:40:16.224Z,96760.75
2023-01-13T06:43:01.191Z,96755.69
2023-01-13T06:45:45.915Z,96757.00
2023-01-13T06:48:30.788Z,96772.34
2023-01-13T06:51:15.679Z,96767.91
2023-01-13T06:54:00.681Z,96770.75
2023-01-13T06:56:45.518Z,96776.03
2023-01-13T06:59:30.393Z,96783.34
2023-01-13T07:02:15.379Z,96782.44
2023-01-13T07:05:00.131Z,96790.28
2023-01-13T07:07:45.125Z,96797.31
2023-01-13T07:10:30.014Z,96795.38
2023-01-13T07:13:14.810Z,96810.56
2023-01-13T07:15:59.654Z,96809.25
2023-01-13T07:18:44.551Z,96807.91
2023-01-13T07:21:29.538Z,96820.91
2023-01-13T07:24:14.373Z,96820.66
2023-01-13T07:26:59.250Z,96830.69
2023-01-13T07:29:44.220Z,96821.94
2023-01-13T07:32:29.216Z,96821.38
2023-01-13T07:35:14.008Z,96823.72
2023-01-13T07:37:58.864Z,96820.50
2023-01-13T07:40:43.647Z,96827.44
2023-01-13T07:43:28.510Z,96827.81
2023-01-13T07:46:13.379Z,96810.19
2023-01-13T07:48:58.195Z,96831.69
2023-01-13T07:51:43.136Z,96829.31
2023-01-13T07:54:39.682Z,96828.59
2023-01-13T07:57:25.979Z,96844.28
2023-01-13T08:00:12.871Z,96836.06
2023-01-13T08:02:58.532Z,96853.50
2023-01-13T08:05:43.579Z,96838.69
2023-01-13T08:08:28.515Z,96827.78
2023-01-13T08:11:13.283Z,96832.03
2023-01-13T08:13:58.077Z,96840.25
2023-01-13T08:16:43.046Z,96847.91
2023-01-13T08:19:27.680Z,96846.81
2023-01-13T08:22:12.636Z,96842.97
2023-01-13T08:24:57.629Z,96844.22
2023-01-13T08:27:42.462Z,96841.84
2023-01-13T08:30:27.300Z,96842.22
2023-01-13T08:33:12.210Z,96844.56
2023-01-13T08:35:56.974Z,96851.72
2023-01-13T08:38:41.950Z,96860.28
2023-01-13T08:41:26.928Z,96863.50
2023-01-13T08:44:12.061Z,96861.38
2023-01-13T08:46:56.996Z,96880.09
2023-01-13T08:49:41.992Z,96880.41
2023-01-13T08:52:26.945Z,96875.63
2023-01-13T08:55:11.776Z,96904.19
2023-01-13T08:58:14.035Z,96901.84
2023-01-13T09:00:59.842Z,96903.34
2023-01-13T09:03:45.090Z,96908.38
2023-01-13T09:06:30.009Z,96915.22
2023-01-13T09:09:14.801Z,96912.41
2023-01-13T09:11:59.788Z,96910.19
2023-01-13T09:14:44.524Z,96922.41
2023-01-13T09:17:29.492Z,96928.88
2023-01-13T09:20:14.254Z,96932.81
2023-01-13T09:22:59.122Z,96925.88
2023-01-13T09:25:43.992Z,96919.81
2023-01-13T09:28:28.782Z,96923.53
2023-01-13T09:31:13.736Z,96923.28
2023-01-13T09:33:58.667Z,96919.25
2023-01-13T09:36:43.468Z,96908.09
2023-01-13T09:39:28.294Z,96913.59
2023-01-13T09:42:13.160Z,96919.44
2023-01-13T09:44:58.117Z,96920.53
2023-01-13T09:47:43.013Z,96917.50
2023-01-13T09:50:27.898Z,96929.66
2023-01-13T09:53:12.826Z,96939.59
2023-01-13T09:55:57.728Z,96935.88
2023-01-13T09:58:42.448Z,96937.09
2023-01-13T10:01:27.410Z,96928.66
2023-01-13T10:04:12.695Z,96916.44
2023-01-13T10:06:57.562Z,96926.22
2023-01-13T10:09:42.412Z,96928.13
2023-01-13T10:12:27.348Z,96914.78
2023-01-13T10:15:12.246Z,96922.47
2023-01-13T10:17:57.086Z,96925.66
2023-01-13T10:20:42.115Z,96926.69
2023-01-13T10:23:26.968Z,96923.38
2023-01-13T10:26:12.032Z,96917.50
2023-01-13T10:28:56.947Z,96923.16
2023-01-13T10:31:41.821Z,96904.53
2023-01-13T10:34:26.689Z,96908.44
2023-01-13T10:37:11.520Z,96919.91
2023-01-13T10:39:56.379Z,96914.97
2023-01-13T10:42:41.138Z,96908.19
2023-01-13T10:45:26.149Z,96911.31
2023-01-13T10:48:11.003Z,96908.66
2023-01-13T10:50:55.907Z,96902.81
2023-01-13T10:53:40.671Z,96903.97
2023-01-13T10:56:25.507Z,96888.91
2023-01-13T10:59:10.325Z,96868.94
2023-01-13T11:01:55.303Z,96876.16
2023-01-13T11:04:40.341Z,96870.31
2023-01-13T11:07:28.235Z,96871.66
2023-01-13T11:10:13.365Z,96866.22
2023-01-13T11:12:58.245Z,96877.59
2023-01-13T11:15:43.278Z,96874.63
2023-01-13T11:18:28.235Z,96875.63
2023-01-13T11:21:13.043Z,96865.19
2023-01-13T11:23:57.948Z,96871.66
2023-01-13T11:26:42.755Z,96882.75
2023-01-13T11:29:27.780Z,96870.00
2023-01-13T11:32:12.630Z,96867.88
2023-01-13T11:34:57.566Z,96857.47
2023-01-13T11:37:42.506Z,96851.81
2023-01-13T11:40:27.389Z,96866.84
2023-01-13T11:43:12.353Z,96867.03
2023-01-13T11:45:57.131Z,96872.47
2023-01-13T11:48:42.029Z,96879.16
2023-01-13T11:51:26.917Z,96884.22
2023-01-13T11:54:11.960Z,96888.72
2023-01-13T11:56:56.773Z,96870.84
2023-01-13T11:59:41.619Z,96866.81
2023-01-13T12:02:26.572Z,96861.94
2023-01-13T12:05:11.946Z,96874.88
2023-01-13T12:07:56.902Z,96895.13
2023-01-13T12:10:42.615Z,96883.25
2023-01-13T12:13:27.462Z,96894.22
2023-01-13T12:16:12.461Z,96888.63
2023-01-13T12:18:57.321Z,96896.75
2023-01-13T12:21:42.231Z,96882.78
2023-01-13T12:24:27.192Z,96882.47
2023-01-13T12:27:12.066Z,96877.06
2023-01-13T12:29:56.920Z,96884.50
2023-01-13T12:32:41.783Z,96881.47
2023-01-13T12:35:26.692Z,96875.66
2023-01-13T12:38:11.539Z,96894.53
2023-01-13T12:40:56.335Z,96894.44
2023-01-13T12:43:41.314Z,96887.88
2023-01-13T12:46:26.167Z,96901.91
2023-01-13T12:49:11.058Z,96890.72
2023-01-13T12:51:55.965Z,96886.63
2023-01-13T12:54:40.919Z,96882.31
2023-01-13T12:57:26.315Z,96880.16
2023-01-13T13:00:11.170Z,96878.00
2023-01-13T13:02:56.093Z,96889.41
2023-01-13T13:05:40.984Z,96885.00
2023-01-13T13:08:25.960Z,96873.81
2023-01-13T13:11:10.745Z,96873.63
2023-01-13T13:13:55.654Z,96877.44
2023-01-13T13:16:40.726Z,96880.69
2023-01-13T13:19:25.493Z,96883.69
2023-01-13T13:22:10.472Z,96893.38
2023-01-13T13:24:55.307Z,96896.22
2023-01-13T13:27:40.309Z,96891.34
2023-01-13T13:30:25.032Z,96890.13
2023-01-13T13:33:09.975Z,96884.50
2023-01-13T13:35:54.816Z,96894.47
2023-01-13T13:38:39.735Z,96888.16
2023-01-13T13:41:24.541Z,96893.69
2023-01-13T13:44:09.188Z,96888.75
2023-01-13T13:46:54.055Z,96897.69
2023-01-13T13:49:38.961Z,96899.16
2023-01-13T13:52:23.868Z,96908.28
2023-01-13T13:55:08.758Z,96923.22
2023-01-13T13:57:53.773Z,96909.84
2023-01-13T14:00:38.462Z,96911.53
2023-01-13T14:03:23.379Z,96911.97
2023-01-13T14:06:08.324Z,96925.53
2023-01-13T14:08:53.307Z,96921.97
2023-01-13T14:11:38.244Z,96925.53
2023-01-13T14:14:23.232Z,96940.16
2023-01-13T14:17:08.146Z,96932.97
2023-01-13T14:19:53.063Z,96924.09
2023-01-13T14:22:37.880Z,96917.34
2023-01-13T14:25:22.631Z,96913.16
2023-01-13T14:28:07.547Z,96914.78
2023-01-13T14:30:52.447Z,96902.41
2023-01-13T14:33:38.652Z,96903.03
2023-01-13T14:36:24.115Z,96905.84
2023-01-13T14:39:08.925Z,96908.09
2023-01-13T14:41:53.889Z,96918.31
2023-01-13T14:44:38.760Z,96916.41
2023-01-13T14:47:23.703Z,96925.16
2023-01-13T14:50:08.864Z,96925.44
2023-01-13T14:52:53.796Z,96938.06
2023-01-13T14:55:38.733Z,96934.94
2023-01-13T14:58:23.652Z,96934.47
2023-01-13T15:01:08.722Z,96940.72
2023-01-13T15:03:53.480Z,96944.31
2023-01-13T15:06:38.372Z,96953.06
2023-01-13T15:09:23.100Z,96962.22
2023-01-13T15:12:08.008Z,96966.03
2023-01-13T15:14:52.839Z,96967.88
2023-01-13T15:17:38.752Z,96963.75
2023-01-13T15:20:23.737Z,96963.94
2023-01-13T15:23:08.584Z,96969.97
2023-01-13T15:25:53.462Z,96980.44
2023-01-13T15:28:38.160Z,96991.72
2023-01-13T15:31:23.216Z,96997.31
2023-01-13T15:34:08.562Z,97006.41
2023-01-13T15:36:53.491Z,97000.47
2023-01-13T15:39:38.338Z,97006.69
2023-01-13T15:42:23.344Z,97020.16
2023-01-13T15:45:08.169Z,97024.78
2023-01-13T15:47:52.881Z,97031.78
2023-01-13T15:50:37.899Z,97037.28
2023-01-13T15:53:23.384Z,97030.09
2023-01-13T15:56:08.456Z,97032.84
2023-01-13T15:58:53.173Z,97040.03
2023-01-13T16:01:38.072Z,97044.13
2023-01-13T16:04:22.989Z,97041.97
2023-01-13T16:07:07.851Z,97031.28
2023-01-13T16:09:52.724Z,97036.94
2023-01-13T16:12:37.660Z,97036.31
2023-01-13T16:15:22.608Z,97041.44
2023-01-13T16:18:07.626Z,97032.56
2023-01-13T16:20:52.542Z,97031.47
2023-01-13T16:23:37.312Z,97043.00
2023-01-13T16:26:22.195Z,97046.75
2023-01-13T16:29:06.981Z,97055.50
2023-01-13T16:31:51.901Z,97058.63
2023-01-13T16:34:36.807Z,97058.34
2023-01-13T16:37:21.738Z,97064.56
2023-01-13T16:40:06.762Z,97075.03
2023-01-13T16:42:51.555Z,97080.97
2023-01-13T16:45:36.498Z,97080.66
2023-01-13T16:48:21.303Z,97087.44
2023-01-13T16:51:06.138Z,97088.59
2023-01-13T16:53:50.936Z,97095.16
2023-01-13T16:56:35.894Z,97107.63
2023-01-13T16:59:20.965Z,97124.03
2023-01-13T17:02:05.750Z,97125.34
2023-01-13T17:04:50.775Z,97128.81
2023-01-13T17:07:35.591Z,97135.88
2023-01-13T17:10:20.481Z,97141.91
2023-01-13T17:13:15.660Z,97143.63
2023-01-13T17:16:01.811Z,97138.25
2023-01-13T17:18:48.153Z,97141.16
2023-01-13T17:21:33.032Z,97141.19
2023-01-13T17:24:17.975Z,97141.28
2023-01-13T17:27:02.995Z,97142.84
2023-01-13T17:29:47.765Z,97147.50
2023-01-13T17:32:32.567Z,97146.84
2023-01-13T17:35:17.634Z,97152.94
2023-01-13T17:38:02.569Z,97157.47
2023-01-13T17:40:47.940Z,97159.75
2023-01-13T17:43:32.779Z,97156.28
2023-01-13T17:46:17.738Z,97159.03
2023-01-13T17:49:02.575Z,97155.13
2023-01-13T17:51:47.470Z,97164.41
2023-01-13T17:54:32.417Z,97154.75
2023-01-13T17:57:17.330Z,97161.44
2023-01-13T18:00:02.426Z,97172.38
2023-01-13T18:02:47.363Z,97166.25
2023-01-13T18:05:33.195Z,97167.28
2023-01-13T18:08:17.987Z,97172.03
2023-01-13T18:11:02.957Z,97182.41
2023-01-13T18:13:47.800Z,97185.78
2023-01-13T18:16:32.657Z,97182.41
2023-01-13T18:19:17.645Z,97184.78
2023-01-13T18:22:02.351Z,97190.16
2023-01-13T18:24:47.229Z,97185.59
2023-01-13T18:27:31.968Z,97201.06
2023-01-13T18:30:16.958Z,97201.13
2023-01-13T18:33:01.771Z,97206.22
2023-01-13T18:35:46.827Z,97214.53
2023-01-13T18:38:31.704Z,97216.00
2023-01-13T18:41:16.687Z,97213.97
2023-01-13T18:44:01.585Z,97213.66
2023-01-13T18:46:46.421Z,97218.81
2023-01-13T18:49:31.338Z,97213.72
2023-01-13T18:52:16.139Z,97218.84
2023-01-13T18:55:01.153Z,97221.25
2023-01-13T18:57:46.024Z,97235.44
2023-01-13T19:00:31.064Z,97244.31
2023-01-13T19:03:16.067Z,97240.75
2023-01-13T19:06:00.881Z,97248.41
2023-01-13T19:08:45.801Z,97257.19
2023-01-13T19:11:30.646Z,97256.31
2023-01-13T19:14:15.670Z,97261.19
2023-01-13T19:17:00.653Z,97268.84
2023-01-13T19:19:45.970Z,97265.41
2023-01-13T19:22:30.993Z,97269.19
2023-01-13T19:25:16.045Z,97268.31
2023-01-13T19:28:00.825Z,97270.41
2023-01-13T19:30:45.732Z,97267.56
2023-01-13T19:33:30.713Z,97262.72
2023-01-13T19:36:15.561Z,97268.38
2023-01-13T19:39:00.382Z,97275.41
2023-01-13T19:41:45.223Z,97284.75
2023-01-13T19:44:30.166Z,97311.44
2023-01-13T19:47:15.181Z,97318.25
2023-01-13T19:50:00.024Z,97310.94
2023-01-13T19:52:44.833Z,97311.38
2023-01-13T19:55:29.676Z,97301.66
2023-01-13T19:58:14.772Z,97303.66
2023-01-13T20:00:59.709Z,97307.78
2023-01-13T20:03:44.631Z,97304.38
2023-01-13T20:06:29.508Z,97315.31
2023-01-13T20:09:14.489Z,97313.47
2023-01-13T20:11:59.214Z,97318.00
2023-01-13T20:14:44.058Z,97310.97
2023-01-13T20:17:30.751Z,97296.63
2023-01-13T20:20:15.849Z,97289.41
2023-01-13T20:23:00.665Z,97293.91
2023-01-13T20:25:45.516Z,97294.19
2023-01-13T20:28:30.472Z,97289.91
2023-01-13T20:31:15.298Z,97291.28
2023-01-13T20:34:00.103Z,97296.97
2023-01-13T20:36:45.049Z,97304.22
2023-01-13T20:39:29.963Z,97314.59
2023-01-13T20:42:14.954Z,97320.94
2023-01-13T20:44:59.849Z,97319.09
2023-01-13T20:47:44.753Z,97330.66
2023-01-13T20:50:29.465Z,97327.28
2023-01-13T20:53:14.270Z,97309.16
2023-01-13T20:55:59.291Z,97321.44
2023-01-13T20:58:44.275Z,97319.88
2023-01-13T21:01:29.227Z,97327.16
2023-01-13T21:04:14.066Z,97331.38
2023-01-13T21:06:59.068Z,97328.41
2023-01-13T21:09:43.925Z,97332.97
2023-01-13T21:12:28.780Z,97349.25
2023-01-13T21:15:13.756Z,97336.34
2023-01-13T21:17:58.672Z,97325.94
2023-01-13T21:20:43.484Z,97332.72
2023-01-13T21:23:28.373Z,97326.50
2023-01-13T21:26:13.217Z,97318.25
2023-01-13T21:28:57.938Z,97312.47
2023-01-13T21:31:42.854Z,97317.91
2023-01-13T21:34:27.708Z,97312.28
2023-01-13T21:37:12.622Z,97313.97
2023-01-13T21:39:57.562Z,97325.97
2023-01-13T21:42:42.473Z,97325.50
2023-01-13T21:45:27.470Z,97319.44
2023-01-13T21:48:12.118Z,97321.94
2023-01-13T21:50:56.984Z,97310.75
2023-01-13T21:53:41.963Z,97310.66
2023-01-13T21:56:26.894Z,97312.56
2023-01-13T21:59:11.681Z,97321.84
2023-01-13T22:02:12.347Z,97325.94
2023-01-13T22:05:01.447Z,97325.63
2023-01-13T22:07:46.269Z,97327.53
2023-01-13T22:10:31.078Z,97335.59
2023-01-13T22:13:15.844Z,97336.25
2023-01-13T22:16:00.783Z,97337.88
2023-01-13T22:18:45.743Z,97334.34
2023-01-13T22:21:30.801Z,97347.34
2023-01-13T22:24:15.544Z,97346.75
2023-01-13T22:27:00.407Z,97348.81
2023-01-13T22:29:45.249Z,97355.53
2023-01-13T22:32:30.078Z,97342.63
2023-01-13T22:35:15.049Z,97331.03
2023-01-13T22:37:59.981Z,97345.63
2023-01-13T22:40:44.962Z,97342.66
2023-01-13T22:43:29.823Z,97342.16
2023-01-13T22:46:14.778Z,97345.97
2023-01-13T22:48:59.569Z,97337.00
2023-01-13T22:51:44.458Z,97336.16
2023-01-13T22:54:29.220Z,97341.47
2023-01-13T22:57:14.383Z,97337.84
2023-01-13T22:59:59.600Z,97336.16
2023-01-13T23:02:44.449Z,97333.78
2023-01-13T23:05:29.444Z,97341.78
2023-01-13T23:08:14.244Z,97338.78
2023-01-13T23:10:59.180Z,97326.53
2023-01-13T23:13:43.957Z,97326.63
2023-01-13T23:16:28.916Z,97333.47
2023-01-13T23:19:13.787Z,97326.88
2023-01-13T23:21:58.690Z,97330.41
2023-01-13T23:24:43.534Z,97323.56
2023-01-13T23:27:28.447Z,97311.31
2023-01-13T23:30:13.502Z,97312.81
2023-01-13T23:32:58.216Z,97312.31
2023-01-13T23:35:43.085Z,97319.53
2023-01-13T23:38:27.961Z,97316.69
2023-01-13T23:41:12.811Z,97313.03
2023-01-13T23:43:57.587Z,97316.03
2023-01-13T23:46:42.519Z,97311.91
2023-01-13T23:49:27.531Z,97307.28
2023-01-13T23:52:12.316Z,97298.13
2023-01-13T23:54:57.210Z,97297.81
2023-01-13T23:57:42.167Z,97303.63
